Share

Washington, IA

Washington Municipal (KAWG) Elev 755 ft | 41.28 °N, 91.67 °W | Change Station

Current weather conditions updated 18 minutes ago

Clear
Clear
48 °F
Feels Like 48 °F
N
10
Wind Variable Wind from ESE
Sunrise 6:22 AM
Sunset 7:50 PM
Moon Waning Gibbous

Tomorrow is forecast to be Much Warmer than today.

Pressure 30.24 in
Visibility 10.0 miles
Clouds Clear
Dew Point 30 °F
Humidity 50%
Rainfall 0.00 in
Snow Depth Not available.
UV 0 out of 16
Pollen 10.10 out of 12
Air Quality Not available.
Flu Activity Sporadic
METAR KAWG 190215Z AUTO 12009KT 10SM CLR 09/M01 A3024 RMK AO2

More Conditions Fewer Conditions

Pressure 30.24 in
Visibility 10.0 miles
Clouds Clear
Dew Point 30 °F
Humidity 50%
Rainfall 0.00 in
Snow Depth Not available.
UV 0 out of 16
Pollen 10.10 out of 12
Air Quality Not available.
Flu Activity Sporadic
METAR KAWG 190215Z AUTO 12009KT 10SM CLR 09/M01 A3024 RMK AO2

More Conditions Fewer Conditions

10-Day Weather Forecast

Almanac

Astronomy

Apr. 18, 2014 Rise Set
Actual Time 6:22 AM CDT 7:50 PM CDT
Civil Twilight 5:53 AM CDT 8:19 PM CDT
Nautical Twilight 5:19 AM CDT 8:54 PM CDT
Astronomical Twilight 4:42 AM CDT 9:31 PM CDT
Moon 11:37 PM CDT (4/18) 8:43 AM CDT (4/18)
Length of Visible Light 14h 25m
Length of Day
13h 27m
Tomorrow will be 2m 36s longer.
Waning Gibbous, 84% of the Moon is Illuminated
Today
Waning Gibbous
Apr 22
Last Quarter
Apr 29
New
May 6
First Quarter
May 14
Full

Today's Extremes

State Highs State Lows

Community

  • Sunset Silhouettes
    Sunset Silhouettes
  • FL sunset Perico Isle
    FL sunset Perico Isle
  • Cloudy spring view
    Cloudy spring view
  • Old barn
    Old barn
  • What's for Lunch?
    What's for Lunch?

WunderPhotos

Upload Photos

1,702,594 photos uploaded!

WunderBlogs® & News

Nearby

Snow Depth

Station Depth Elevation
No new snow has been reported.

Coastal Water Temperatures

Place Temperature
No Stations Reporting

Earthquake Activity

City Distance Mag. Time & Date
No recent earthquake activity has been reported nearby.
Minimum magnitude displayed is 2.5.

Nearby Weather Stations

Station Location Temp. Windchill Dew Point Humidity Wind Precip. Elev Updated Type
Downtown Kalona, Kalona, IA 50.2 °F - 31 °F 48% North  at  0.0 mph 0.00 in / hr 664 ft 9:33 PM CDT Rapid Fire
Purdy Hill (Ken), Columbus Junction, IA 49.5 °F 50 °F 32 °F 51% East  at  0.0 mph - / hr 656 ft 9:30 PM CDT Normal
Ron Cutkomp, Columbus City, IA 52.3 °F - 34 °F 50% East  at  3.2 mph - / hr 725 ft 9:26 PM CDT Normal
Mt. Union, IA 51.7 °F - 28 °F 39% East  at  0.0 mph 0.00 in / hr 722 ft 9:30 PM CDT Normal

Show More Stations Show Fewer Stations

What do you think?

We're not finished. Please let us know what you like, what you don't like, and what you are still missing.